createdAt,value
2022-10-05T00:00:00.293Z,1012
2022-10-05T00:05:00.301Z,1012
2022-10-05T00:10:00.247Z,1012
2022-10-05T00:15:00.249Z,1012
2022-10-05T00:20:00.249Z,1012
2022-10-05T00:25:00.234Z,1012
2022-10-05T00:30:00.300Z,1012
2022-10-05T00:35:00.209Z,1012
2022-10-05T00:40:00.241Z,1012
2022-10-05T00:45:00.198Z,1011
2022-10-05T00:50:00.204Z,1011
2022-10-05T00:55:00.231Z,1012
2022-10-05T01:00:00.236Z,1012
2022-10-05T01:05:00.233Z,1012
2022-10-05T01:10:00.264Z,1011
2022-10-05T01:15:00.253Z,1011
2022-10-05T01:20:00.240Z,1011
2022-10-05T01:25:00.239Z,1011
2022-10-05T01:30:00.294Z,1011
2022-10-05T01:35:00.143Z,1011
2022-10-05T01:40:00.268Z,1011
2022-10-05T01:45:00.138Z,1011
2022-10-05T01:50:00.259Z,1011
2022-10-05T01:55:00.214Z,1011
2022-10-05T02:00:00.226Z,1011
2022-10-05T02:05:02.615Z,1011
2022-10-05T02:10:00.243Z,1011
2022-10-05T02:15:00.142Z,1011
2022-10-05T02:20:00.263Z,1011
2022-10-05T02:25:00.246Z,1011
2022-10-05T02:30:00.282Z,1011
2022-10-05T02:35:00.208Z,1011
2022-10-05T02:40:00.218Z,1011
2022-10-05T02:45:00.153Z,1011
2022-10-05T02:50:00.273Z,1011
2022-10-05T02:55:00.141Z,1011
2022-10-05T03:00:00.245Z,1011
2022-10-05T03:05:00.249Z,1011
2022-10-05T03:10:01.385Z,1011
2022-10-05T03:15:00.219Z,1011
2022-10-05T03:20:00.277Z,1010
2022-10-05T03:25:00.250Z,1010
2022-10-05T03:30:00.296Z,1010
2022-10-05T03:35:00.282Z,1010
2022-10-05T03:40:00.231Z,1010
2022-10-05T03:45:00.248Z,1010
2022-10-05T03:50:00.279Z,1010
2022-10-05T03:55:00.239Z,1010
2022-10-05T04:00:00.300Z,1010
2022-10-05T04:05:00.261Z,1010
2022-10-05T04:10:00.282Z,1010
2022-10-05T04:15:00.401Z,1010
2022-10-05T04:20:00.260Z,1010
2022-10-05T04:25:00.201Z,1010
2022-10-05T04:30:00.313Z,1010
2022-10-05T04:35:00.267Z,1010
2022-10-05T04:40:00.240Z,1010
2022-10-05T04:45:00.240Z,1010
2022-10-05T04:50:00.260Z,1010
2022-10-05T04:55:00.233Z,1010
2022-10-05T05:00:00.276Z,1010
2022-10-05T05:05:00.251Z,1010
2022-10-05T05:10:00.268Z,1010
2022-10-05T05:15:00.268Z,1010
2022-10-05T05:20:00.277Z,1010
2022-10-05T05:25:00.250Z,1010
2022-10-05T05:30:00.262Z,1010
2022-10-05T05:35:00.252Z,1010
2022-10-05T05:40:00.281Z,1010
2022-10-05T05:45:00.286Z,1010
2022-10-05T05:50:06.373Z,1010
2022-10-05T05:55:00.257Z,1010
2022-10-05T06:00:00.347Z,1010
2022-10-05T06:05:00.242Z,1010
2022-10-05T06:10:00.274Z,1010
2022-10-05T06:15:00.272Z,1010
2022-10-05T06:20:04.945Z,1010
2022-10-05T06:25:00.262Z,1010
2022-10-05T06:30:00.273Z,1010
2022-10-05T06:35:00.317Z,1010
2022-10-05T06:40:01.384Z,1010
2022-10-05T06:45:00.241Z,1010
2022-10-05T06:50:00.247Z,1010
2022-10-05T06:55:00.232Z,1010
2022-10-05T07:00:00.296Z,1010
2022-10-05T07:05:00.271Z,1010
2022-10-05T07:10:00.271Z,1010
2022-10-05T07:15:00.261Z,1010
2022-10-05T07:20:00.276Z,1010
2022-10-05T07:25:00.226Z,1010
2022-10-05T07:30:00.303Z,1010
2022-10-05T07:35:00.280Z,1010
2022-10-05T07:40:01.091Z,1010
2022-10-05T07:45:00.292Z,1010
2022-10-05T07:50:00.281Z,1010
2022-10-05T07:55:00.265Z,1010
2022-10-05T08:00:00.329Z,1010
2022-10-05T08:05:00.269Z,1010
2022-10-05T08:10:00.278Z,1010
2022-10-05T08:15:00.256Z,1010
2022-10-05T08:20:00.306Z,1010
2022-10-05T08:25:00.286Z,1010
2022-10-05T08:30:00.349Z,1010
2022-10-05T08:35:00.259Z,1010
2022-10-05T08:40:00.317Z,1010
2022-10-05T08:45:00.281Z,1010
2022-10-05T08:50:00.268Z,1010
2022-10-05T08:55:00.274Z,1010
2022-10-05T09:00:00.379Z,1010
2022-10-05T09:05:00.288Z,1010
2022-10-05T09:10:01.929Z,1010
2022-10-05T09:15:23.786Z,1010
2022-10-05T09:20:00.288Z,1010
2022-10-05T09:25:00.252Z,1010
2022-10-05T09:30:00.305Z,1010
2022-10-05T09:35:00.254Z,1010
2022-10-05T09:40:01.451Z,1010
2022-10-05T09:45:00.395Z,1010
2022-10-05T09:50:00.274Z,1010
2022-10-05T09:55:00.245Z,1010
2022-10-05T10:00:00.361Z,1010
2022-10-05T10:05:00.252Z,1010
2022-10-05T10:10:00.273Z,1010
2022-10-05T10:15:02.815Z,1010
2022-10-05T10:20:00.253Z,1010
2022-10-05T10:25:00.227Z,1010
2022-10-05T10:30:00.324Z,1010
2022-10-05T10:35:00.209Z,1010
2022-10-05T10:40:00.290Z,1010
2022-10-05T10:45:00.306Z,1010
2022-10-05T10:50:00.318Z,1010
2022-10-05T10:55:00.274Z,1010
2022-10-05T11:00:00.334Z,1010
2022-10-05T11:05:00.286Z,1010
2022-10-05T11:10:00.244Z,1010
2022-10-05T11:15:00.253Z,1010
2022-10-05T11:20:04.368Z,1010
2022-10-05T11:25:00.287Z,1009
2022-10-05T11:30:00.320Z,1009
2022-10-05T11:35:00.304Z,1009
2022-10-05T11:40:00.271Z,1009
2022-10-05T11:45:00.248Z,1009
2022-10-05T11:50:00.288Z,1009
2022-10-05T11:55:11.658Z,1009
2022-10-05T12:00:00.327Z,1009
2022-10-05T12:05:00.269Z,1009
2022-10-05T12:10:00.343Z,1009
2022-10-05T12:15:00.282Z,1008
2022-10-05T12:20:00.294Z,1008
2022-10-05T12:25:00.240Z,1008
2022-10-05T12:30:00.350Z,1008
2022-10-05T12:35:02.122Z,1008
2022-10-05T12:40:00.271Z,1008
2022-10-05T12:45:00.262Z,1008
2022-10-05T12:50:00.280Z,1008
2022-10-05T12:55:00.273Z,1008
2022-10-05T13:00:00.306Z,1008
2022-10-05T13:05:00.249Z,1008
2022-10-05T13:10:00.307Z,1008
2022-10-05T13:15:00.257Z,1008
2022-10-05T13:20:00.263Z,1007
2022-10-05T13:25:00.254Z,1007
2022-10-05T13:30:00.263Z,1007
2022-10-05T13:35:00.258Z,1007
2022-10-05T13:40:00.324Z,1007
2022-10-05T13:45:00.251Z,1007
2022-10-05T13:50:00.416Z,1007
2022-10-05T13:55:00.253Z,1007
2022-10-05T14:00:00.388Z,1007
2022-10-05T14:05:00.200Z,1007
2022-10-05T14:10:00.380Z,1007
2022-10-05T14:15:00.224Z,1007
2022-10-05T14:20:00.289Z,1007
2022-10-05T14:25:00.272Z,1007
2022-10-05T14:30:00.642Z,1007
2022-10-05T14:35:00.273Z,1007
2022-10-05T14:40:00.257Z,1007
2022-10-05T14:45:00.257Z,1007
2022-10-05T14:50:00.282Z,1007
2022-10-05T14:55:00.274Z,1007
2022-10-05T15:00:00.349Z,1007
2022-10-05T15:05:00.263Z,1007
2022-10-05T15:10:00.271Z,1007
2022-10-05T15:15:00.271Z,1007
2022-10-05T15:20:00.280Z,1007
2022-10-05T15:25:00.233Z,1007
2022-10-05T15:30:00.319Z,1007
2022-10-05T15:35:00.253Z,1007
2022-10-05T15:40:00.297Z,1007
2022-10-05T15:45:00.253Z,1007
2022-10-05T15:50:00.370Z,1007
2022-10-05T15:55:00.229Z,1007
2022-10-05T16:00:00.306Z,1007
2022-10-05T16:05:04.628Z,1007
2022-10-05T16:10:00.259Z,1007
2022-10-05T16:15:00.251Z,1007
2022-10-05T16:20:00.236Z,1007
2022-10-05T16:25:00.212Z,1007
2022-10-05T16:30:00.336Z,1007
2022-10-05T16:35:00.240Z,1007
2022-10-05T16:40:00.241Z,1007
2022-10-05T16:45:00.289Z,1008
2022-10-05T16:50:00.281Z,1008
2022-10-05T16:55:00.244Z,1008
2022-10-05T17:00:00.334Z,1008
2022-10-05T17:05:00.256Z,1008
2022-10-05T17:10:00.217Z,1008
2022-10-05T17:15:00.205Z,1008
2022-10-05T17:20:00.275Z,1008
2022-10-05T17:25:00.230Z,1008
2022-10-05T17:30:00.276Z,1008
2022-10-05T17:35:00.251Z,1008
2022-10-05T17:40:00.327Z,1009
2022-10-05T17:45:00.265Z,1009
2022-10-05T17:50:00.287Z,1009
2022-10-05T17:55:00.199Z,1009
2022-10-05T18:00:00.449Z,1009
2022-10-05T18:05:00.241Z,1009
2022-10-05T18:10:00.362Z,1009
2022-10-05T18:15:00.271Z,1009
2022-10-05T18:20:00.288Z,1009
2022-10-05T18:25:00.304Z,1009
2022-10-05T18:30:00.322Z,1009
2022-10-05T18:35:02.144Z,1010
2022-10-05T18:40:00.229Z,1010
2022-10-05T18:45:00.260Z,1010
2022-10-05T18:50:00.300Z,1010
2022-10-05T18:55:00.282Z,1010
2022-10-05T19:00:00.291Z,1010
2022-10-05T19:05:00.294Z,1010
2022-10-05T19:10:00.296Z,1010
2022-10-05T19:15:00.194Z,1010
2022-10-05T19:20:00.303Z,1010
2022-10-05T19:25:00.234Z,1010
2022-10-05T19:30:00.279Z,1010
2022-10-05T19:35:00.325Z,1010
2022-10-05T19:40:00.352Z,1010
2022-10-05T19:45:00.260Z,1010
2022-10-05T19:50:00.290Z,1010
2022-10-05T19:55:00.277Z,1010
2022-10-05T20:00:00.296Z,1010
2022-10-05T20:05:00.209Z,1010
2022-10-05T20:10:00.280Z,1010
2022-10-05T20:15:00.289Z,1010
2022-10-05T20:20:00.490Z,1010
2022-10-05T20:25:00.295Z,1010
2022-10-05T20:30:00.276Z,1010
2022-10-05T20:35:00.227Z,1010
2022-10-05T20:40:00.307Z,1010
2022-10-05T20:45:00.265Z,1010
2022-10-05T20:50:00.242Z,1010
2022-10-05T20:55:00.236Z,1010
2022-10-05T21:00:00.251Z,1010
2022-10-05T21:05:00.250Z,1011
2022-10-05T21:10:00.281Z,1011
2022-10-05T21:15:05.167Z,1011
2022-10-05T21:20:00.310Z,1011
2022-10-05T21:25:00.213Z,1011
2022-10-05T21:30:00.269Z,1011
2022-10-05T21:35:00.254Z,1011
2022-10-05T21:40:00.187Z,1011
2022-10-05T21:45:00.153Z,1011
2022-10-05T21:50:00.273Z,1011
2022-10-05T21:55:00.144Z,1011
2022-10-05T22:00:00.351Z,1011
2022-10-05T22:05:00.188Z,1011
2022-10-05T22:10:00.209Z,1011
2022-10-05T22:15:00.147Z,1011
2022-10-05T22:20:00.244Z,1011
2022-10-05T22:25:00.215Z,1012
2022-10-05T22:30:00.232Z,1012
2022-10-05T22:35:00.202Z,1012
2022-10-05T22:40:00.234Z,1012
2022-10-05T22:45:00.203Z,1012
2022-10-05T22:50:00.408Z,1012
2022-10-05T22:55:00.206Z,1012
2022-10-05T23:00:00.235Z,1012
2022-10-05T23:05:00.239Z,1012
2022-10-05T23:10:00.285Z,1013
2022-10-05T23:15:00.419Z,1012
2022-10-05T23:20:00.258Z,1013
2022-10-05T23:25:00.217Z,1013
2022-10-05T23:30:00.209Z,1013
2022-10-05T23:35:00.204Z,1013
2022-10-05T23:40:00.215Z,1013
2022-10-05T23:45:00.245Z,1014
2022-10-05T23:50:00.294Z,1014
2022-10-05T23:55:00.143Z,1014
